RT @iembot_lwx: GRANT_COUNTY_AIRPORT,WV (W99) ASOS reports gust of 52 knots (59.8 mph) from WNW @ 0655Z — KW99 280655Z AUTO 29029G52KT 10SM SCT047 07/M03 A2992 RMK AO2 P0004 T00661028




from Twitter https://twitter.com/midatlanticwx